Time;durP1;ratioP1;P1;durP2;ratioP2;P2;SDS_P1;SDS_P2;PMS_P1;PMS_P2;Temp;Humidity;BMP_temperature;BMP_pressure;BME280_temperature;BME280_humidity;BME280_pressure;Samples;Min_cycle;Max_cycle;Signal;HPM_P1;HPM_P2
2022/06/22 00:01:46;;;;;;;;;11.00;10.00;;;;;23.01;37.60;100554.34;5037199;28;45547;-52
2022/06/22 00:04:21;;;;;;;;;11.75;11.75;;;;;22.98;37.66;100551.03;5021863;28;45331;-49
2022/06/22 00:07:01;;;;;;;;;13.25;10.25;;;;;22.95;36.92;100546.75;5021393;28;45288;-50
2022/06/22 00:09:32;;;;;;;;;10.75;10.75;;;;;22.92;37.25;100546.97;5010913;28;45518;-51
2022/06/22 00:11:59;;;;;;;;;10.50;10.25;;;;;22.89;37.46;100542.69;5021753;28;45340;-49
2022/06/22 00:14:29;;;;;;;;;9.50;9.00;;;;;22.87;37.32;100535.72;5021323;28;45162;-51
2022/06/22 00:16:56;;;;;;;;;14.00;12.75;;;;;22.84;37.61;100536.78;5021454;28;45708;-51
2022/06/22 00:19:43;;;;;;;;;12.25;9.50;;;;;22.81;37.47;100533.47;5021511;28;46086;-51
2022/06/22 00:22:20;;;;;;;;;9.00;9.00;;;;;22.77;37.37;100537.31;5021446;28;45279;-51
2022/06/22 00:24:55;;;;;;;;;10.00;9.50;;;;;22.71;37.57;100535.91;5021648;28;45265;-51
2022/06/22 00:27:30;;;;;;;;;14.75;13.50;;;;;22.68;37.80;100526.28;5021489;28;45217;-52
2022/06/22 00:30:25;;;;;;;;;12.00;10.50;;;;;22.65;37.69;100520.25;5021268;28;46205;-52
2022/06/22 00:33:12;;;;;;;;;11.00;10.25;;;;;22.61;37.99;100519.59;5021185;28;45286;-52
2022/06/22 00:35:47;;;;;;;;;12.00;11.50;;;;;22.58;37.85;100517.16;5021566;28;45240;-49
2022/06/22 00:38:16;;;;;;;;;10.50;10.50;;;;;22.52;38.22;100512.22;5021217;28;45186;-51
2022/06/22 00:40:42;;;;;;;;;11.00;11.00;;;;;22.50;37.84;100516.81;5021151;28;45418;-49
2022/06/22 00:43:13;;;;;;;;;15.25;13.75;;;;;22.49;37.81;100528.47;5021242;28;45308;-50
2022/06/22 00:45:40;;;;;;;;;12.75;10.75;;;;;22.45;38.36;100522.50;5020932;28;45288;-51
2022/06/22 00:48:18;;;;;;;;;11.25;11.00;;;;;22.43;38.22;100526.22;5021251;28;45373;-48
2022/06/22 00:50:54;;;;;;;;;13.25;12.00;;;;;22.41;38.61;100539.69;5021024;28;45301;-51
2022/06/22 00:53:30;;;;;;;;;12.00;11.75;;;;;22.38;38.11;100546.13;5020826;28;45502;-50
2022/06/22 00:56:04;;;;;;;;;14.50;14.50;;;;;22.35;38.06;100542.75;5021133;28;45398;-51
2022/06/22 00:58:35;;;;;;;;;11.00;10.00;;;;;22.33;38.40;100537.50;5021072;28;45311;-51
2022/06/22 01:01:22;;;;;;;;;13.25;11.25;;;;;22.32;38.42;100535.78;5020811;28;45418;-49
2022/06/22 01:03:56;;;;;;;;;13.00;11.50;;;;;;;;5020646;28;45237;-49
2022/06/22 01:06:43;;;;;;;;;13.75;11.75;;;;;22.26;38.21;100532.69;5020993;28;45311;-50
2022/06/22 01:09:39;;;;;;;;;15.00;12.75;;;;;22.22;38.87;100538.22;5009232;28;45472;-49
2022/06/22 01:12:26;;;;;;;;;16.00;11.00;;;;;22.20;38.75;100540.16;5017041;28;45552;-50
2022/06/22 01:14:55;;;;;;;;;12.00;12.00;;;;;22.17;38.70;100539.50;5020618;28;45466;-52
2022/06/22 01:17:30;;;;;;;;;13.50;11.50;;;;;22.14;38.39;100553.06;5020744;28;45354;-48
2022/06/22 01:20:04;;;;;;;;;13.50;11.50;;;;;22.14;38.87;100553.94;5019468;28;45373;-51
2022/06/22 01:22:43;;;;;;;;;13.25;13.25;;;;;22.12;38.78;100533.59;5020463;28;46316;-53
2022/06/22 01:25:28;;;;;;;;;13.75;12.75;;;;;22.11;39.10;100534.56;5020679;28;45173;-48
2022/06/22 01:27:53;;;;;;;;;12.50;10.50;;;;;22.08;38.92;100530.25;5019578;28;45296;-47
2022/06/22 01:30:38;;;;;;;;;14.75;13.75;;;;;22.07;38.57;100533.88;5020575;28;45236;-52
2022/06/22 01:33:23;;;;;;;;;13.00;12.00;;;;;22.04;39.00;100534.94;5020428;28;45238;-50
2022/06/22 01:35:54;;;;;;;;;13.25;12.25;;;;;22.03;38.92;100535.06;5020406;28;45243;-50
2022/06/22 01:38:29;;;;;;;;;13.00;12.75;;;;;22.02;39.20;100544.88;5020520;28;45396;-52
2022/06/22 01:41:26;;;;;;;;;14.00;11.75;;;;;21.99;39.30;100537.06;5020312;28;45331;-51
2022/06/22 01:43:58;;;;;;;;;13.00;13.00;;;;;21.98;38.86;100555.91;5020392;28;45331;-49
2022/06/22 01:46:54;;;;;;;;;13.75;10.50;;;;;21.96;39.08;100547.09;5020328;28;45244;-52
2022/06/22 01:49:22;;;;;;;;;18.50;14.75;;;;;21.94;39.17;100549.91;5035688;28;45357;-50
2022/06/22 01:51:53;;;;;;;;;13.75;12.25;;;;;21.91;38.96;100553.63;5020135;28;45423;-50
2022/06/22 01:54:23;;;;;;;;;15.25;13.75;;;;;21.90;39.30;100559.09;5020100;28;46140;-50
2022/06/22 01:56:55;;;;;;;;;12.75;12.00;;;;;21.88;39.15;100561.00;5018958;28;45318;-47
2022/06/22 01:59:27;;;;;;;;;14.25;12.75;;;;;21.86;39.49;100558.41;5020317;28;45320;-49
2022/06/22 02:02:10;;;;;;;;;13.50;12.75;;;;;21.84;38.97;100562.16;5019807;28;45244;-52
2022/06/22 02:04:43;;;;;;;;;14.25;13.25;;;;;21.82;39.54;100548.00;5019371;28;45319;-48
2022/06/22 02:08:02;;;;;;;;;12.75;11.50;;;;;21.81;39.71;100546.28;5032020;28;46131;-50
2022/06/22 02:10:24;;;;;;;;;12.00;12.00;;;;;21.77;39.62;100542.94;5011363;28;45304;-51
2022/06/22 02:13:01;;;;;;;;;13.75;13.00;;;;;21.75;39.25;100551.06;5019967;28;45426;-50
2022/06/22 02:15:39;;;;;;;;;14.75;11.50;;;;;21.74;39.36;100543.16;5019632;28;46158;-47
2022/06/22 02:18:20;;;;;;;;;15.00;13.75;;;;;21.69;39.39;100540.78;5019865;28;45373;-47
2022/06/22 02:20:45;;;;;;;;;19.75;17.50;;;;;21.67;39.50;100547.16;5019962;28;45220;-52
2022/06/22 02:23:24;;;;;;;;;15.00;14.75;;;;;21.65;39.90;100541.09;5019459;28;45595;-50
2022/06/22 02:26:13;;;;;;;;;15.50;13.25;;;;;21.61;39.82;100542.22;5019177;28;46322;-50
2022/06/22 02:28:40;;;;;;;;;13.00;12.00;;;;;21.58;39.37;100536.13;5019919;28;45249;-51
2022/06/22 02:31:06;;;;;;;;;14.25;12.25;;;;;21.54;39.68;100531.03;5019563;28;45229;-52
2022/06/22 02:33:35;;;;;;;;;13.00;13.00;;;;;21.55;40.02;100530.09;5019735;28;45220;-51
2022/06/22 02:36:01;;;;;;;;;12.75;12.75;;;;;21.54;39.76;100528.38;5019551;28;45356;-47
2022/06/22 02:38:26;;;;;;;;;17.50;14.00;;;;;21.52;39.58;100527.59;5020777;28;45316;-52
2022/06/22 02:46:32;;;;;;;;;16.50;13.00;;;;;21.50;40.17;100526.84;5003157;28;45854;-50
2022/06/22 02:49:04;;;;;;;;;13.75;13.75;;;;;21.46;40.34;100512.81;5002754;28;45383;-51
2022/06/22 02:51:36;;;;;;;;;15.75;14.50;;;;;21.49;40.33;100509.09;5002009;28;45348;-50
2022/06/22 02:54:05;;;;;;;;;14.75;12.75;;;;;21.50;39.79;100511.66;5001843;28;45323;-50
2022/06/22 02:56:40;;;;;;;;;15.75;14.25;;;;;21.49;40.35;100515.28;5003050;28;46201;-50
2022/06/22 02:59:08;;;;;;;;;15.00;14.00;;;;;21.49;40.46;100506.41;5003031;28;45323;-52
2022/06/22 03:01:36;;;;;;;;;16.50;15.75;;;;;21.48;40.47;100502.88;5000991;28;45293;-52
2022/06/22 03:04:10;;;;;;;;;15.50;14.75;;;;;21.47;40.34;100493.16;5001632;28;45297;-51
2022/06/22 03:06:41;;;;;;;;;14.25;14.25;;;;;21.46;40.53;100478.06;5002511;28;45362;-51
2022/06/22 03:09:08;;;;;;;;;16.25;16.25;;;;;21.45;40.16;100462.13;5021944;28;45386;-48
2022/06/22 03:11:38;;;;;;;;;13.00;12.25;;;;;21.43;40.34;100457.75;5022948;28;45315;-48
2022/06/22 03:14:25;;;;;;;;;18.25;16.50;;;;;21.42;40.12;100468.50;5023161;28;45209;-50
2022/06/22 03:16:58;;;;;;;;;15.00;14.25;;;;;21.41;40.22;100480.19;5022360;28;45332;-51
2022/06/22 03:19:38;;;;;;;;;16.25;13.25;;;;;21.40;40.37;100483.81;5021371;28;45472;-52
2022/06/22 03:22:03;;;;;;;;;15.50;13.50;;;;;21.40;40.12;100499.84;5022385;28;45341;-54
2022/06/22 03:24:47;;;;;;;;;17.25;17.00;;;;;21.40;40.38;100491.81;5022430;28;45256;-53
2022/06/22 03:27:22;;;;;;;;;15.50;13.75;;;;;21.40;40.65;100484.66;5022537;28;46263;-48
2022/06/22 03:29:54;;;;;;;;;14.25;14.25;;;;;21.41;40.27;100477.50;5022270;28;45324;-49
2022/06/22 03:32:25;;;;;;;;;16.75;13.75;;;;;21.41;40.44;100472.16;5022366;28;45182;-49
2022/06/22 03:35:08;;;;;;;;;15.25;12.75;;;;;21.40;40.42;100463.28;5021424;28;45284;-49
2022/06/22 03:37:42;;;;;;;;;17.25;15.00;;;;;21.40;40.27;100468.59;5021958;28;45459;-50
2022/06/22 03:40:17;;;;;;;;;17.25;13.75;;;;;21.40;40.73;100478.47;5022341;28;45421;-49
2022/06/22 03:42:51;;;;;;;;;16.00;15.75;;;;;21.41;40.87;100464.16;5022242;28;45323;-49
2022/06/22 03:45:24;;;;;;;;;17.75;15.50;;;;;21.40;40.42;100468.59;5022225;28;45443;-53
2022/06/22 03:48:19;;;;;;;;;13.75;13.00;;;;;21.41;40.75;100466.81;5021880;28;45941;-52
2022/06/22 03:50:50;;;;;;;;;16.75;16.00;;;;;21.41;40.81;100464.16;5011762;28;45399;-52
2022/06/22 03:53:29;;;;;;;;;17.50;16.25;;;;;21.40;40.95;100476.63;5021857;28;45357;-53
2022/06/22 03:56:02;;;;;;;;;16.25;15.25;;;;;21.41;40.95;100481.03;5022000;28;45308;-50
2022/06/22 03:58:28;;;;;;;;;18.50;16.75;;;;;21.42;41.05;100476.53;5021937;28;45477;-48
2022/06/22 04:00:54;;;;;;;;;16.00;14.50;;;;;21.41;40.68;100485.53;5021771;28;45344;-53
2022/06/22 04:03:20;;;;;;;;;22.50;20.00;;;;;21.42;40.72;100477.41;5022158;28;45324;-50
2022/06/22 04:05:53;;;;;;;;;14.25;13.75;;;;;21.42;40.50;100472.06;5021763;28;45467;-52
2022/06/22 04:08:31;;;;;;;;;15.00;14.25;;;;;21.42;40.66;100505.91;5008952;28;46281;-51
2022/06/22 04:11:04;;;;;;;;;16.00;14.50;;;;;21.41;41.17;100490.88;5021715;28;45386;-48
2022/06/22 04:13:45;;;;;;;;;15.00;14.00;;;;;21.41;40.63;100499.72;5021932;28;45473;-52
2022/06/22 04:16:18;;;;;;;;;15.00;14.25;;;;;21.40;40.83;100505.19;5021737;28;45256;-52
2022/06/22 04:18:52;;;;;;;;;16.00;11.75;;;;;21.39;40.68;100485.59;5021705;28;45429;-53
2022/06/22 04:21:22;;;;;;;;;15.25;13.75;;;;;21.37;40.83;100505.38;5021525;28;45311;-51
2022/06/22 04:23:57;;;;;;;;;15.00;15.00;;;;;21.37;41.47;100500.91;5021575;28;45246;-53
2022/06/22 04:26:55;;;;;;;;;16.50;15.75;;;;;21.38;41.00;100478.56;5021458;28;45221;-51
2022/06/22 04:29:38;;;;;;;;;17.50;14.25;;;;;21.39;40.88;100471.38;5021479;28;46180;-50
2022/06/22 04:32:18;;;;;;;;;18.75;17.00;;;;;21.39;40.86;100474.06;5019993;28;45488;-52
2022/06/22 04:34:53;;;;;;;;;17.00;15.00;;;;;21.40;40.81;100473.97;5021419;28;45323;-49
2022/06/22 04:37:32;;;;;;;;;19.25;15.75;;;;;21.41;41.11;100483.69;5019878;28;45322;-50
2022/06/22 04:40:23;;;;;;;;;17.25;16.00;;;;;21.42;41.02;100489.88;5021340;28;45511;-52
2022/06/22 04:42:56;;;;;;;;;17.50;14.25;;;;;21.42;40.90;100481.88;5021135;28;45490;-48
2022/06/22 04:45:38;;;;;;;;;15.00;13.00;;;;;21.43;41.35;100480.91;5021529;28;45461;-49
2022/06/22 04:48:09;;;;;;;;;13.00;12.50;;;;;21.45;41.42;100480.84;5021167;28;45398;-50
2022/06/22 04:50:36;;;;;;;;;16.00;14.75;;;;;21.45;41.06;100470.16;5020904;28;46333;-52
2022/06/22 04:53:03;;;;;;;;;16.25;15.25;;;;;21.46;41.49;100482.53;5020967;28;45332;-50
2022/06/22 04:55:38;;;;;;;;;16.25;16.25;;;;;21.47;41.62;100485.13;5021108;28;45339;-50
2022/06/22 04:58:08;;;;;;;;;19.50;16.50;;;;;21.50;40.93;100476.06;5020948;28;45305;-48
2022/06/22 05:00:34;;;;;;;;;17.50;16.25;;;;;21.50;41.27;100465.38;5020677;28;46133;-52
2022/06/22 05:03:13;;;;;;;;;16.25;15.25;;;;;21.51;41.51;100462.59;5020716;28;45326;-51
2022/06/22 05:05:39;;;;;;;;;18.50;16.50;;;;;21.52;41.03;100460.75;5021177;28;45173;-51
2022/06/22 05:08:07;;;;;;;;;19.00;17.75;;;;;21.51;41.41;100459.03;5009927;28;45448;-49
2022/06/22 05:10:42;;;;;;;;;13.50;13.50;;;;;21.48;41.30;100443.22;5019690;28;46421;-52
2022/06/22 05:13:27;;;;;;;;;18.25;18.25;;;;;21.52;41.62;100448.28;5020707;28;45299;-52
2022/06/22 05:15:56;;;;;;;;;19.50;16.50;;;;;21.51;41.73;100438.53;5020775;28;45403;-52
2022/06/22 05:18:25;;;;;;;;;18.00;16.75;;;;;21.52;41.74;100444.72;5020395;28;45157;-48
2022/06/22 05:21:04;;;;;;;;;14.00;13.75;;;;;21.52;41.82;100447.41;5020529;28;45379;-50
2022/06/22 05:23:31;;;;;;;;;18.75;16.75;;;;;21.50;41.13;100454.69;5020337;28;45234;-50
2022/06/22 05:26:01;;;;;;;;;17.25;16.50;;;;;21.50;41.48;100458.19;5020727;28;45287;-52
2022/06/22 05:28:26;;;;;;;;;18.25;16.75;;;;;21.49;41.85;100452.97;5019034;28;45380;-50
2022/06/22 05:31:07;;;;;;;;;18.00;16.50;;;;;21.47;41.39;100445.03;5020325;28;45320;-50
2022/06/22 05:33:35;;;;;;;;;16.75;15.25;;;;;21.47;41.73;100445.03;5020067;28;45410;-49
2022/06/22 05:36:12;;;;;;;;;17.25;17.00;;;;;21.47;41.48;100437.03;5035966;28;45332;-50
2022/06/22 05:38:42;;;;;;;;;23.25;20.00;;;;;21.48;41.73;100448.56;5019934;28;45378;-48
2022/06/22 05:41:10;;;;;;;;;20.00;18.50;;;;;21.47;41.85;100450.38;5020109;28;46308;-52
2022/06/22 05:43:40;;;;;;;;;17.00;16.25;;;;;21.49;41.97;100444.94;5020296;28;45354;-52
2022/06/22 05:46:06;;;;;;;;;18.50;17.25;;;;;21.48;41.62;100437.88;5019758;28;45417;-53
2022/06/22 05:48:38;;;;;;;;;21.50;19.00;;;;;21.51;41.49;100453.69;5020295;28;45307;-52
2022/06/22 05:51:17;;;;;;;;;19.50;18.50;;;;;21.52;41.84;100458.09;5020027;28;45373;-52
2022/06/22 05:53:58;;;;;;;;;18.75;17.25;;;;;21.49;41.75;100440.44;5019790;28;45249;-53
2022/06/22 05:56:47;;;;;;;;;16.00;16.00;;;;;21.52;41.64;100445.59;5020365;28;45317;-51
2022/06/22 05:59:23;;;;;;;;;16.50;16.50;;;;;21.50;41.51;100447.50;5020135;28;45547;-51
2022/06/22 06:02:04;;;;;;;;;17.00;15.25;;;;;21.51;41.05;100462.59;5019726;28;45471;-53
2022/06/22 06:04:48;;;;;;;;;18.50;18.00;;;;;21.51;41.44;100462.59;5020169;28;45287;-49
2022/06/22 06:07:23;;;;;;;;;17.25;17.25;;;;;21.48;41.78;100453.91;5015892;28;45311;-49
2022/06/22 06:09:49;;;;;;;;;17.75;17.50;;;;;21.48;41.27;100468.13;5012640;28;45458;-50
2022/06/22 06:12:20;;;;;;;;;17.75;17.75;;;;;21.47;41.44;100461.06;5019500;28;45649;-52
2022/06/22 06:14:50;;;;;;;;;23.25;18.50;;;;;21.48;41.29;100453.91;5018434;28;45333;-50
2022/06/22 06:17:30;;;;;;;;;19.50;17.25;;;;;21.48;41.31;100453.91;5020108;28;45315;-51
2022/06/22 06:19:59;;;;;;;;;15.25;14.50;;;;;21.45;41.91;100456.78;5019826;28;45326;-49
2022/06/22 06:22:28;;;;;;;;;14.50;11.25;;;;;21.46;41.97;100459.34;5018999;28;45410;-52
2022/06/22 06:27:48;;;;;;;;;15.50;15.50;;;;;21.43;41.77;100452.41;5019702;28;45337;-50
2022/06/22 06:30:16;;;;;;;;;18.50;16.50;;;;;21.42;42.00;100442.66;5019754;28;45477;-52
2022/06/22 06:33:01;;;;;;;;;18.00;16.25;;;;;21.43;41.91;100440.81;5019102;28;47084;-50
2022/06/22 06:35:33;;;;;;;;;16.50;16.50;;;;;21.43;41.92;100441.69;5019657;28;45381;-51
2022/06/22 06:38:11;;;;;;;;;18.50;17.25;;;;;21.43;41.56;100449.72;5018192;28;45474;-49
2022/06/22 06:41:08;;;;;;;;;14.50;13.50;;;;;21.42;41.39;100461.38;5019450;28;45364;-49
2022/06/22 06:43:49;;;;;;;;;19.75;17.50;;;;;21.42;42.31;100458.69;5013601;28;46360;-50
2022/06/22 06:46:39;;;;;;;;;19.25;18.75;;;;;21.42;41.55;100458.69;5019413;28;45293;-50
2022/06/22 06:49:10;;;;;;;;;19.75;18.25;;;;;21.44;41.61;100466.59;5019527;28;45212;-49
2022/06/22 06:51:41;;;;;;;;;18.50;17.50;;;;;21.45;41.46;100467.47;5034615;28;45368;-52
2022/06/22 06:54:17;;;;;;;;;19.75;17.25;;;;;21.45;41.99;100470.16;5019290;28;46136;-52
2022/06/22 06:56:56;;;;;;;;;18.50;18.00;;;;;21.46;41.77;100479.88;5019615;28;45267;-49
2022/06/22 06:59:26;;;;;;;;;20.50;18.75;;;;;21.46;41.98;100482.53;5019875;28;45392;-51
2022/06/22 07:01:52;;;;;;;;;20.00;15.00;;;;;21.47;42.12;100485.13;5018948;28;45684;-52
2022/06/22 07:04:29;;;;;;;;;19.50;18.25;;;;;21.52;41.57;100488.38;5019163;28;46158;-52
2022/06/22 07:07:30;;;;;;;;;19.25;19.00;;;;;21.56;41.60;100494.41;5017908;28;45376;-51
2022/06/22 07:10:02;;;;;;;;;15.75;14.75;;;;;21.58;42.17;100482.66;5018459;28;45285;-51
2022/06/22 07:12:39;;;;;;;;;20.75;19.25;;;;;21.62;42.23;100477.94;5019286;28;45379;-52
2022/06/22 07:15:10;;;;;;;;;16.00;14.50;;;;;21.67;41.62;100470.50;5018989;28;46324;-52
2022/06/22 07:17:35;;;;;;;;;18.50;17.75;;;;;21.68;42.04;100464.19;5019153;28;45497;-52
2022/06/22 07:20:23;;;;;;;;;20.50;19.75;;;;;21.74;41.60;100468.28;5019108;28;45398;-50
2022/06/22 07:22:52;;;;;;;;;23.50;21.50;;;;;21.78;41.78;100469.78;5018875;28;45442;-49
2022/06/22 07:25:30;;;;;;;;;20.00;18.75;;;;;21.83;41.55;100472.19;5021793;28;46645;-51
2022/06/22 07:28:02;;;;;;;;;19.00;16.75;;;;;21.87;41.85;100479.03;5037607;28;45298;-49
2022/06/22 07:30:35;;;;;;;;;17.50;16.75;;;;;21.89;41.87;100483.31;5022483;28;45223;-50
2022/06/22 07:33:03;;;;;;;;;16.75;16.00;;;;;21.94;42.09;100485.69;5020702;28;45483;-52
2022/06/22 07:35:40;;;;;;;;;19.00;17.50;;;;;22.00;41.66;100484.41;5022412;28;46617;-52
2022/06/22 07:38:23;;;;;;;;;21.50;15.00;;;;;22.05;41.99;100476.97;5021985;28;45350;-49
2022/06/22 07:43:33;;;;;;;;;16.00;15.50;;;;;22.17;41.79;100480.63;5022522;28;45229;-51
2022/06/22 07:45:59;;;;;;;;;17.75;17.75;;;;;22.24;41.90;100481.94;5021914;28;45402;-49
2022/06/22 07:48:29;;;;;;;;;15.50;15.50;;;;;22.33;42.15;100486.66;5022258;28;45315;-51
2022/06/22 07:50:57;;;;;;;;;20.75;19.00;;;;;22.40;41.86;100487.13;5022140;28;45261;-50
2022/06/22 07:53:48;;;;;;;;;19.00;18.75;;;;;22.49;41.75;100501.69;5021997;28;45268;-49
2022/06/22 07:56:34;;;;;;;;;20.50;20.50;;;;;22.59;42.22;100504.63;5022204;28;45345;-52
2022/06/22 07:59:27;;;;;;;;;18.50;17.75;;;;;22.68;41.90;100499.50;5021885;28;45788;-50
2022/06/22 08:01:58;;;;;;;;;17.75;17.00;;;;;22.78;41.61;100496.16;5021698;28;45367;-51
2022/06/22 08:04:38;;;;;;;;;17.75;16.75;;;;;22.87;41.92;100498.22;5022122;28;45245;-51
2022/06/22 08:07:08;;;;;;;;;20.00;17.50;;;;;22.95;41.62;100503.88;5019079;28;46214;-50
2022/06/22 08:09:43;;;;;;;;;22.25;19.50;;;;;23.05;41.63;100512.97;5012644;28;45355;-52
2022/06/22 08:12:17;;;;;;;;;20.50;20.50;;;;;23.16;41.89;100511.41;5021957;28;45303;-51
2022/06/22 08:14:46;;;;;;;;;18.50;17.75;;;;;23.24;41.68;100509.03;5021694;28;45228;-49
2022/06/22 08:17:20;;;;;;;;;20.25;16.50;;;;;23.32;41.93;100512.03;5021801;28;45416;-52
2022/06/22 08:19:45;;;;;;;;;17.00;16.00;;;;;23.39;41.82;100498.19;5020207;28;46008;-52
2022/06/22 08:22:12;;;;;;;;;17.25;15.50;;;;;23.46;41.21;100499.44;5021466;28;45499;-53
2022/06/22 08:24:44;;;;;;;;;20.00;19.75;;;;;23.53;41.60;100509.63;5020500;28;45325;-52
2022/06/22 08:27:16;;;;;;;;;18.25;17.00;;;;;23.59;41.42;100513.69;5021635;28;46298;-53
2022/06/22 08:29:42;;;;;;;;;20.25;18.25;;;;;23.65;41.30;100510.56;5021429;28;45249;-52
2022/06/22 08:32:13;;;;;;;;;18.50;17.25;;;;;23.72;41.47;100508.28;5021438;28;45300;-52
2022/06/22 08:34:50;;;;;;;;;17.75;15.75;;;;;23.79;41.20;100514.06;5021427;28;45284;-53
2022/06/22 08:37:24;;;;;;;;;17.25;14.25;;;;;23.85;41.39;100514.47;5020601;28;46352;-50
2022/06/22 08:39:56;;;;;;;;;20.50;17.25;;;;;23.90;41.43;100514.13;5021529;28;45287;-53
2022/06/22 08:42:46;;;;;;;;;18.00;17.50;;;;;23.95;41.21;100520.03;5021365;28;45304;-52
2022/06/22 08:45:36;;;;;;;;;22.50;20.75;;;;;24.02;41.08;100524.00;5021260;28;45333;-52
2022/06/22 08:48:30;;;;;;;;;23.00;21.75;;;;;24.06;41.35;100527.28;5020955;28;45395;-52
2022/06/22 08:51:22;;;;;;;;;18.25;18.00;;;;;24.10;41.13;100527.91;5020960;28;45329;-50
2022/06/22 08:53:57;;;;;;;;;16.00;15.00;;;;;24.13;40.91;100519.63;5021133;28;45248;-52
2022/06/22 08:56:29;;;;;;;;;23.75;18.75;;;;;24.16;41.05;100511.34;5021139;28;45442;-53
2022/06/22 08:59:00;;;;;;;;;21.25;19.00;;;;;24.19;40.88;100516.50;5020418;28;45630;-51
2022/06/22 09:01:47;;;;;;;;;18.75;16.75;;;;;24.23;40.91;100523.34;5020896;28;45340;-50
2022/06/22 09:04:44;;;;;;;;;16.50;16.50;;;;;24.25;40.85;100517.84;4981781;28;45352;-52
2022/06/22 09:07:15;;;;;;;;;21.00;19.00;;;;;24.26;40.78;100520.41;4993014;28;45421;-50
2022/06/22 09:10:14;;;;;;;;;22.75;20.75;;;;;24.29;40.57;100524.72;4973967;28;45432;-52
2022/06/22 09:13:10;;;;;;;;;23.00;19.75;;;;;24.31;41.05;100520.94;4981411;28;45245;-52
2022/06/22 09:15:55;;;;;;;;;21.25;17.25;;;;;24.36;41.00;100527.78;4981568;28;45234;-50
2022/06/22 09:18:45;;;;;;;;;15.50;15.50;;;;;24.40;40.89;100537.31;4996389;28;46241;-52
2022/06/22 09:21:27;;;;;;;;;18.75;17.50;;;;;24.44;40.64;100525.34;4980994;28;46173;-49
2022/06/22 09:24:11;;;;;;;;;22.50;21.50;;;;;24.50;40.86;100524.88;4981361;28;45158;-50
2022/06/22 09:26:45;;;;;;;;;23.75;20.00;;;;;24.54;40.85;100526.38;4981119;28;45235;-50
2022/06/22 09:29:36;;;;;;;;;19.50;17.00;;;;;24.60;40.85;100531.28;4981445;28;45202;-53
2022/06/22 09:32:10;;;;;;;;;19.50;16.50;;;;;24.65;40.30;100529.13;4980797;28;45340;-49
2022/06/22 09:34:53;;;;;;;;;16.25;15.50;;;;;24.74;40.65;100532.06;4980728;28;45604;-52
2022/06/22 09:37:29;;;;;;;;;16.75;15.25;;;;;24.80;40.87;100521.72;4980918;28;45505;-54
2022/06/22 09:40:05;;;;;;;;;19.75;17.00;;;;;24.92;40.77;100530.66;4996373;28;45519;-52
2022/06/22 09:42:45;;;;;;;;;18.00;18.00;;;;;25.04;40.73;100531.50;4980763;28;45516;-53
2022/06/22 09:45:41;;;;;;;;;20.50;18.75;;;;;25.16;40.74;100521.63;4981002;28;45295;-53
2022/06/22 09:48:17;;;;;;;;;18.00;15.50;;;;;25.33;40.96;100524.81;4979201;28;45494;-51
2022/06/22 09:51:26;;;;;;;;;21.00;18.25;;;;;25.47;40.87;100522.75;4980771;28;45312;-52
2022/06/22 09:57:17;;;;;;;;;14.75;14.00;;;;;25.77;40.77;100515.84;4980731;28;45183;-49
2022/06/22 10:00:12;;;;;;;;;17.50;14.75;;;;;25.95;40.59;100520.72;4996012;28;45379;-50
2022/06/22 10:02:54;;;;;;;;;16.75;16.75;;;;;26.09;40.48;100524.97;4994974;28;45970;-52
2022/06/22 10:05:50;;;;;;;;;19.50;17.75;;;;;26.23;40.31;100530.03;5019999;28;46172;-53
2022/06/22 10:08:34;;;;;;;;;17.75;16.25;;;;;26.36;40.24;100529.03;5007526;28;45240;-52
2022/06/22 10:11:20;;;;;;;;;19.00;16.50;;;;;26.45;40.16;100525.53;5020088;28;45317;-49
2022/06/22 10:14:03;;;;;;;;;17.00;16.50;;;;;26.54;40.19;100532.84;5019991;28;45311;-53
2022/06/22 10:17:06;;;;;;;;;19.50;18.25;;;;;26.65;40.04;100531.06;5019895;28;45508;-50
2022/06/22 10:19:40;;;;;;;;;18.50;17.00;;;;;26.73;40.24;100534.84;5034748;28;45238;-52
2022/06/22 10:22:20;;;;;;;;;20.00;18.50;;;;;26.81;40.02;100526.09;5019760;28;45202;-49
2022/06/22 10:25:10;;;;;;;;;16.75;16.50;;;;;26.87;39.97;100522.03;5019748;28;45358;-54
2022/06/22 10:28:22;;;;;;;;;20.00;17.50;;;;;26.90;39.81;100525.28;5019709;28;46552;-53
2022/06/22 10:30:56;;;;;;;;;17.50;16.50;;;;;26.95;40.37;100526.75;5019095;28;45399;-50
2022/06/22 10:33:43;;;;;;;;;17.50;16.00;;;;;26.98;39.79;100518.38;5018999;28;45332;-51
2022/06/22 10:36:24;;;;;;;;;17.50;17.50;;;;;27.00;40.45;100513.72;5019181;28;45322;-48
2022/06/22 10:38:56;;;;;;;;;16.75;16.50;;;;;27.02;40.15;100511.72;5019600;28;45339;-50
2022/06/22 10:47:52;;;;;;;;;25.50;22.50;;;;;27.09;40.00;100507.50;5019378;28;45284;-51
2022/06/22 10:50:42;;;;;;;;;18.50;17.75;;;;;27.11;40.40;100505.53;5019745;28;46506;-53
2022/06/22 10:53:25;;;;;;;;;17.25;17.25;;;;;27.12;40.12;100496.47;5019109;28;45320;-50
2022/06/22 10:55:57;;;;;;;;;20.00;20.00;;;;;27.14;39.56;100499.88;5019325;28;45463;-50
2022/06/22 10:58:33;;;;;;;;;16.75;16.50;;;;;27.15;39.73;100496.19;5019312;28;45236;-52
2022/06/22 11:01:16;;;;;;;;;18.25;16.50;;;;;27.16;39.81;100494.38;5022649;28;46326;-50
2022/06/22 11:04:14;;;;;;;;;11.25;10.50;;;;;27.13;40.15;100489.22;5022759;28;45228;-50
2022/06/22 11:07:02;;;;;;;;;19.00;17.50;;;;;27.10;40.26;100493.06;5022645;28;45339;-53
2022/06/22 11:09:30;;;;;;;;;13.75;13.75;;;;;27.06;39.65;100497.00;5022924;28;45506;-49
2022/06/22 11:12:25;;;;;;;;;17.25;14.00;;;;;27.00;39.75;100495.69;5037725;28;48090;-50
2022/06/22 11:15:15;;;;;;;;;16.50;16.25;;;;;26.99;39.73;100498.53;5022059;28;45293;-50
2022/06/22 11:17:59;;;;;;;;;16.50;15.00;;;;;26.93;40.05;100492.69;5022543;28;45527;-51
2022/06/22 11:20:52;;;;;;;;;17.75;17.75;;;;;26.87;40.45;100490.53;5022666;28;45338;-52
2022/06/22 11:23:45;;;;;;;;;18.00;15.75;;;;;26.81;39.99;100488.38;5021989;28;46219;-50
2022/06/22 11:32:29;;;;;;;;;17.25;15.50;;;;;26.64;39.88;100508.69;5022210;28;45383;-49
2022/06/22 11:35:22;;;;;;;;;16.50;15.50;;;;;26.57;39.94;100504.78;5021793;28;45318;-50
2022/06/22 11:38:12;;;;;;;;;14.75;14.00;;;;;26.51;39.83;100518.78;5021901;28;45246;-51
2022/06/22 11:41:02;;;;;;;;;14.00;14.00;;;;;26.44;40.14;100513.91;5022203;28;45379;-52
2022/06/22 11:43:41;;;;;;;;;19.25;16.25;;;;;26.37;40.05;100514.56;5021292;28;45502;-50
2022/06/22 11:46:18;;;;;;;;;16.75;16.75;;;;;26.33;40.84;100513.97;5021876;28;45235;-52
2022/06/22 11:49:22;;;;;;;;;16.00;15.25;;;;;26.26;40.23;100513.66;5021906;28;45294;-53
2022/06/22 11:52:30;;;;;;;;;17.00;14.25;;;;;26.19;40.24;100511.56;5006936;28;45276;-50
2022/06/22 11:55:11;;;;;;;;;16.50;15.00;;;;;26.15;40.13;100515.50;5020932;28;45548;-51
2022/06/22 11:57:52;;;;;;;;;17.50;16.75;;;;;26.11;40.66;100523.00;5036907;28;47244;-51
2022/06/22 12:00:54;;;;;;;;;19.00;17.50;;;;;26.06;40.52;100514.44;5022127;28;45331;-53
2022/06/22 12:03:41;;;;;;;;;19.50;16.50;;;;;26.03;40.39;100522.75;5037188;28;45391;-53
2022/06/22 12:06:48;;;;;;;;;16.50;15.75;;;;;26.01;40.53;100524.72;5036963;28;45396;-50
2022/06/22 12:09:30;;;;;;;;;20.25;18.25;;;;;25.96;41.02;100525.09;4974789;28;46298;-52
2022/06/22 12:12:17;;;;;;;;;19.00;19.00;;;;;25.94;40.73;100533.28;4979128;28;45440;-51
2022/06/22 12:15:06;;;;;;;;;15.25;15.00;;;;;25.91;40.65;100535.38;5010012;28;45514;-50
2022/06/22 12:17:37;;;;;;;;;22.25;20.25;;;;;25.89;41.20;100529.28;5021543;28;45269;-50
2022/06/22 12:20:41;;;;;;;;;21.00;19.50;;;;;25.88;41.49;100525.72;5021393;28;46281;-50
2022/06/22 12:23:18;;;;;;;;;20.00;18.00;;;;;25.86;40.86;100527.69;5021307;28;45328;-53
2022/06/22 12:26:12;;;;;;;;;19.75;18.50;;;;;25.86;41.31;100530.41;5021624;28;45506;-51